sensor_id;sensor_type;location;lat;lon;timestamp;temperature;humidity
25092;DHT22;13082;52.374;4.946;2023-04-30T00:02:13;10.80;99.90
25092;DHT22;13082;52.374;4.946;2023-04-30T00:04:39;10.70;99.90
25092;DHT22;13082;52.374;4.946;2023-04-30T00:07:04;10.70;99.90
25092;DHT22;13082;52.374;4.946;2023-04-30T00:09:30;10.70;99.90
25092;DHT22;13082;52.374;4.946;2023-04-30T00:11:56;10.70;99.90
25092;DHT22;13082;52.374;4.946;2023-04-30T00:14:21;10.70;99.90
25092;DHT22;13082;52.374;4.946;2023-04-30T00:16:47;10.70;99.90
25092;DHT22;13082;52.374;4.946;2023-04-30T00:19:12;10.70;99.90
25092;DHT22;13082;52.374;4.946;2023-04-30T00:21:38;10.70;99.90
25092;DHT22;13082;52.374;4.946;2023-04-30T00:24:04;10.70;99.90
25092;DHT22;13082;52.374;4.946;2023-04-30T00:26:30;10.70;99.90
25092;DHT22;13082;52.374;4.946;2023-04-30T00:28:55;10.70;99.90
25092;DHT22;13082;52.374;4.946;2023-04-30T00:31:21;10.70;99.90
25092;DHT22;13082;52.374;4.946;2023-04-30T00:33:47;10.60;99.90
25092;DHT22;13082;52.374;4.946;2023-04-30T00:36:12;10.60;99.90
25092;DHT22;13082;52.374;4.946;2023-04-30T00:38:38;10.60;99.90
25092;DHT22;13082;52.374;4.946;2023-04-30T00:41:04;10.60;99.90
25092;DHT22;13082;52.374;4.946;2023-04-30T00:43:30;10.60;99.90
25092;DHT22;13082;52.374;4.946;2023-04-30T00:45:56;10.70;99.90
25092;DHT22;13082;52.374;4.946;2023-04-30T00:48:23;10.60;99.90
25092;DHT22;13082;52.374;4.946;2023-04-30T00:50:49;10.70;99.90
25092;DHT22;13082;52.374;4.946;2023-04-30T00:53:16;10.60;99.90
25092;DHT22;13082;52.374;4.946;2023-04-30T00:55:42;10.60;99.90
25092;DHT22;13082;52.374;4.946;2023-04-30T00:58:08;10.60;99.90
25092;DHT22;13082;52.374;4.946;2023-04-30T01:00:34;10.70;99.90
25092;DHT22;13082;52.374;4.946;2023-04-30T01:03:00;10.70;99.90
25092;DHT22;13082;52.374;4.946;2023-04-30T01:05:25;10.60;99.90
25092;DHT22;13082;52.374;4.946;2023-04-30T01:07:52;10.70;99.90
25092;DHT22;13082;52.374;4.946;2023-04-30T01:10:18;10.70;99.90
25092;DHT22;13082;52.374;4.946;2023-04-30T01:13:09;10.70;99.90
25092;DHT22;13082;52.374;4.946;2023-04-30T01:15:44;10.70;99.90
25092;DHT22;13082;52.374;4.946;2023-04-30T01:18:39;10.70;99.90
25092;DHT22;13082;52.374;4.946;2023-04-30T01:21:07;10.70;99.90
25092;DHT22;13082;52.374;4.946;2023-04-30T01:24:01;10.70;99.90
25092;DHT22;13082;52.374;4.946;2023-04-30T01:29:31;10.70;99.90
25092;DHT22;13082;52.374;4.946;2023-04-30T01:31:58;10.70;99.90
25092;DHT22;13082;52.374;4.946;2023-04-30T01:34:25;10.70;99.90
25092;DHT22;13082;52.374;4.946;2023-04-30T01:47:45;10.70;99.90
25092;DHT22;13082;52.374;4.946;2023-04-30T01:52:46;10.70;99.90
25092;DHT22;13082;52.374;4.946;2023-04-30T01:55:41;10.70;99.90
25092;DHT22;13082;52.374;4.946;2023-04-30T01:58:12;10.60;99.90
25092;DHT22;13082;52.374;4.946;2023-04-30T02:00:39;10.70;99.90
25092;DHT22;13082;52.374;4.946;2023-04-30T02:03:05;10.70;99.90
25092;DHT22;13082;52.374;4.946;2023-04-30T02:05:31;10.70;99.90
25092;DHT22;13082;52.374;4.946;2023-04-30T02:07:57;10.70;99.90
25092;DHT22;13082;52.374;4.946;2023-04-30T02:10:24;10.70;99.90
25092;DHT22;13082;52.374;4.946;2023-04-30T02:12:51;10.70;99.90
25092;DHT22;13082;52.374;4.946;2023-04-30T02:15:16;10.70;99.90
25092;DHT22;13082;52.374;4.946;2023-04-30T02:17:42;10.60;99.90
25092;DHT22;13082;52.374;4.946;2023-04-30T02:20:08;10.60;99.90
25092;DHT22;13082;52.374;4.946;2023-04-30T02:22:35;10.60;99.90
25092;DHT22;13082;52.374;4.946;2023-04-30T02:25:00;10.50;99.90
25092;DHT22;13082;52.374;4.946;2023-04-30T02:27:28;10.50;99.90
25092;DHT22;13082;52.374;4.946;2023-04-30T02:29:54;10.50;99.90
25092;DHT22;13082;52.374;4.946;2023-04-30T02:32:20;10.40;99.90
25092;DHT22;13082;52.374;4.946;2023-04-30T02:34:46;10.40;99.90
25092;DHT22;13082;52.374;4.946;2023-04-30T02:37:12;10.40;99.90
25092;DHT22;13082;52.374;4.946;2023-04-30T02:39:37;10.30;99.90
25092;DHT22;13082;52.374;4.946;2023-04-30T02:42:03;10.30;99.90
25092;DHT22;13082;52.374;4.946;2023-04-30T02:44:31;10.30;99.90
25092;DHT22;13082;52.374;4.946;2023-04-30T02:46:56;10.20;99.90
25092;DHT22;13082;52.374;4.946;2023-04-30T02:49:22;10.20;99.90
25092;DHT22;13082;52.374;4.946;2023-04-30T02:51:48;10.10;99.90
25092;DHT22;13082;52.374;4.946;2023-04-30T02:54:13;10.20;99.90
25092;DHT22;13082;52.374;4.946;2023-04-30T02:56:39;10.10;99.90
25092;DHT22;13082;52.374;4.946;2023-04-30T02:59:04;10.10;99.90
25092;DHT22;13082;52.374;4.946;2023-04-30T03:01:30;10.10;99.90
25092;DHT22;13082;52.374;4.946;2023-04-30T03:03:56;10.00;99.90
25092;DHT22;13082;52.374;4.946;2023-04-30T03:06:23;10.00;99.90
25092;DHT22;13082;52.374;4.946;2023-04-30T03:08:48;10.00;99.90
25092;DHT22;13082;52.374;4.946;2023-04-30T03:11:14;10.00;99.90
25092;DHT22;13082;52.374;4.946;2023-04-30T03:13:41;10.00;99.90
25092;DHT22;13082;52.374;4.946;2023-04-30T03:16:07;9.90;99.90
25092;DHT22;13082;52.374;4.946;2023-04-30T03:18:32;9.90;99.90
25092;DHT22;13082;52.374;4.946;2023-04-30T03:20:58;9.90;99.90
25092;DHT22;13082;52.374;4.946;2023-04-30T03:23:26;9.90;99.90
25092;DHT22;13082;52.374;4.946;2023-04-30T03:25:52;9.90;99.90
25092;DHT22;13082;52.374;4.946;2023-04-30T03:28:18;9.90;99.90
25092;DHT22;13082;52.374;4.946;2023-04-30T03:30:43;9.90;99.90
25092;DHT22;13082;52.374;4.946;2023-04-30T03:33:09;9.90;99.90
25092;DHT22;13082;52.374;4.946;2023-04-30T03:35:35;9.90;99.90
25092;DHT22;13082;52.374;4.946;2023-04-30T03:38:01;9.90;99.90
25092;DHT22;13082;52.374;4.946;2023-04-30T03:40:26;9.90;99.90
25092;DHT22;13082;52.374;4.946;2023-04-30T03:42:52;9.80;99.90
25092;DHT22;13082;52.374;4.946;2023-04-30T03:45:18;9.70;99.90
25092;DHT22;13082;52.374;4.946;2023-04-30T03:47:44;9.70;99.90
25092;DHT22;13082;52.374;4.946;2023-04-30T03:50:10;9.70;99.90
25092;DHT22;13082;52.374;4.946;2023-04-30T03:52:36;9.60;99.90
25092;DHT22;13082;52.374;4.946;2023-04-30T03:55:05;9.60;99.90
25092;DHT22;13082;52.374;4.946;2023-04-30T03:57:31;9.60;99.90
25092;DHT22;13082;52.374;4.946;2023-04-30T03:59:57;9.60;99.90
25092;DHT22;13082;52.374;4.946;2023-04-30T04:02:23;9.60;99.90
25092;DHT22;13082;52.374;4.946;2023-04-30T04:04:50;9.50;99.90
25092;DHT22;13082;52.374;4.946;2023-04-30T04:07:16;9.40;99.90
25092;DHT22;13082;52.374;4.946;2023-04-30T04:09:41;9.40;99.90
25092;DHT22;13082;52.374;4.946;2023-04-30T04:12:07;9.30;99.90
25092;DHT22;13082;52.374;4.946;2023-04-30T04:14:33;9.30;99.90
25092;DHT22;13082;52.374;4.946;2023-04-30T04:17:00;9.30;99.90
25092;DHT22;13082;52.374;4.946;2023-04-30T04:19:26;9.30;99.90
25092;DHT22;13082;52.374;4.946;2023-04-30T04:21:52;9.20;99.90
25092;DHT22;13082;52.374;4.946;2023-04-30T04:24:17;9.20;99.90
25092;DHT22;13082;52.374;4.946;2023-04-30T04:26:43;9.10;99.90
25092;DHT22;13082;52.374;4.946;2023-04-30T04:29:09;9.10;99.90
25092;DHT22;13082;52.374;4.946;2023-04-30T04:31:35;9.10;99.90
25092;DHT22;13082;52.374;4.946;2023-04-30T04:34:02;9.10;99.90
25092;DHT22;13082;52.374;4.946;2023-04-30T04:36:29;9.10;99.90
25092;DHT22;13082;52.374;4.946;2023-04-30T04:38:59;9.10;99.90
25092;DHT22;13082;52.374;4.946;2023-04-30T04:41:31;9.00;99.90
25092;DHT22;13082;52.374;4.946;2023-04-30T04:43:57;9.00;99.90
25092;DHT22;13082;52.374;4.946;2023-04-30T04:46:24;9.00;99.90
25092;DHT22;13082;52.374;4.946;2023-04-30T04:48:50;9.00;99.90
25092;DHT22;13082;52.374;4.946;2023-04-30T04:51:16;9.00;99.90
25092;DHT22;13082;52.374;4.946;2023-04-30T04:53:41;9.00;99.90
25092;DHT22;13082;52.374;4.946;2023-04-30T04:56:07;9.10;99.90
25092;DHT22;13082;52.374;4.946;2023-04-30T04:58:33;9.10;99.90
25092;DHT22;13082;52.374;4.946;2023-04-30T05:00:59;9.10;99.90
25092;DHT22;13082;52.374;4.946;2023-04-30T05:03:28;9.10;99.90
25092;DHT22;13082;52.374;4.946;2023-04-30T05:05:54;9.10;99.90
25092;DHT22;13082;52.374;4.946;2023-04-30T05:08:19;9.10;99.90
25092;DHT22;13082;52.374;4.946;2023-04-30T05:10:45;9.10;99.90
25092;DHT22;13082;52.374;4.946;2023-04-30T05:13:10;9.10;99.90
25092;DHT22;13082;52.374;4.946;2023-04-30T05:15:36;9.20;99.90
25092;DHT22;13082;52.374;4.946;2023-04-30T05:18:02;9.20;99.90
25092;DHT22;13082;52.374;4.946;2023-04-30T05:20:28;9.20;99.90
25092;DHT22;13082;52.374;4.946;2023-04-30T05:22:53;9.20;99.90
25092;DHT22;13082;52.374;4.946;2023-04-30T05:25:19;9.30;99.90
25092;DHT22;13082;52.374;4.946;2023-04-30T05:27:44;9.30;99.90
25092;DHT22;13082;52.374;4.946;2023-04-30T05:30:10;9.30;99.90
25092;DHT22;13082;52.374;4.946;2023-04-30T05:32:36;9.40;99.90
25092;DHT22;13082;52.374;4.946;2023-04-30T05:35:02;9.40;99.90
25092;DHT22;13082;52.374;4.946;2023-04-30T05:37:28;9.50;99.90
25092;DHT22;13082;52.374;4.946;2023-04-30T05:39:53;9.50;99.90
25092;DHT22;13082;52.374;4.946;2023-04-30T05:42:19;9.60;99.90
25092;DHT22;13082;52.374;4.946;2023-04-30T05:44:45;9.70;99.90
25092;DHT22;13082;52.374;4.946;2023-04-30T05:47:11;9.70;99.90
25092;DHT22;13082;52.374;4.946;2023-04-30T05:49:36;9.80;99.90
25092;DHT22;13082;52.374;4.946;2023-04-30T05:52:02;9.90;99.90
25092;DHT22;13082;52.374;4.946;2023-04-30T05:54:31;9.90;99.90
25092;DHT22;13082;52.374;4.946;2023-04-30T05:56:57;9.90;99.90
25092;DHT22;13082;52.374;4.946;2023-04-30T05:59:23;9.90;99.90
25092;DHT22;13082;52.374;4.946;2023-04-30T06:01:48;10.00;99.90
25092;DHT22;13082;52.374;4.946;2023-04-30T06:04:14;10.10;99.90
25092;DHT22;13082;52.374;4.946;2023-04-30T06:06:39;10.10;99.90
25092;DHT22;13082;52.374;4.946;2023-04-30T06:09:05;10.10;99.90
25092;DHT22;13082;52.374;4.946;2023-04-30T06:11:31;10.20;99.90
25092;DHT22;13082;52.374;4.946;2023-04-30T06:13:57;10.30;99.90
25092;DHT22;13082;52.374;4.946;2023-04-30T06:16:23;10.40;99.90
25092;DHT22;13082;52.374;4.946;2023-04-30T06:18:48;10.40;99.90
25092;DHT22;13082;52.374;4.946;2023-04-30T06:21:14;10.40;99.90
25092;DHT22;13082;52.374;4.946;2023-04-30T06:23:40;10.30;99.90
25092;DHT22;13082;52.374;4.946;2023-04-30T06:26:05;10.40;99.90
25092;DHT22;13082;52.374;4.946;2023-04-30T06:28:31;10.40;99.90
25092;DHT22;13082;52.374;4.946;2023-04-30T06:30:57;10.40;99.90
25092;DHT22;13082;52.374;4.946;2023-04-30T06:33:22;10.50;99.90
25092;DHT22;13082;52.374;4.946;2023-04-30T06:35:48;10.50;99.90
25092;DHT22;13082;52.374;4.946;2023-04-30T06:38:19;10.60;99.90
25092;DHT22;13082;52.374;4.946;2023-04-30T06:40:45;10.60;99.90
25092;DHT22;13082;52.374;4.946;2023-04-30T06:43:11;10.70;99.90
25092;DHT22;13082;52.374;4.946;2023-04-30T06:45:37;10.70;99.90
25092;DHT22;13082;52.374;4.946;2023-04-30T06:48:03;10.80;99.90
25092;DHT22;13082;52.374;4.946;2023-04-30T06:50:28;10.90;99.90
25092;DHT22;13082;52.374;4.946;2023-04-30T06:52:55;10.90;99.90
25092;DHT22;13082;52.374;4.946;2023-04-30T06:55:21;10.90;99.90
25092;DHT22;13082;52.374;4.946;2023-04-30T06:57:46;10.80;99.90
25092;DHT22;13082;52.374;4.946;2023-04-30T07:00:12;10.90;99.90
25092;DHT22;13082;52.374;4.946;2023-04-30T07:02:40;10.80;99.90
25092;DHT22;13082;52.374;4.946;2023-04-30T07:05:05;10.80;99.90
25092;DHT22;13082;52.374;4.946;2023-04-30T07:07:31;10.90;99.90
25092;DHT22;13082;52.374;4.946;2023-04-30T07:09:58;10.90;99.90
25092;DHT22;13082;52.374;4.946;2023-04-30T07:12:23;10.90;99.90
25092;DHT22;13082;52.374;4.946;2023-04-30T07:14:49;10.90;99.90
25092;DHT22;13082;52.374;4.946;2023-04-30T07:17:14;11.00;99.90
25092;DHT22;13082;52.374;4.946;2023-04-30T07:19:40;11.10;99.90
25092;DHT22;13082;52.374;4.946;2023-04-30T07:22:06;11.20;99.90
25092;DHT22;13082;52.374;4.946;2023-04-30T07:24:33;11.30;99.90
25092;DHT22;13082;52.374;4.946;2023-04-30T07:26:58;11.30;99.90
25092;DHT22;13082;52.374;4.946;2023-04-30T07:29:27;11.40;99.90
25092;DHT22;13082;52.374;4.946;2023-04-30T07:31:54;11.40;99.90
25092;DHT22;13082;52.374;4.946;2023-04-30T07:34:19;11.50;99.90
25092;DHT22;13082;52.374;4.946;2023-04-30T07:36:46;11.50;99.90
25092;DHT22;13082;52.374;4.946;2023-04-30T07:39:12;11.60;99.90
25092;DHT22;13082;52.374;4.946;2023-04-30T07:41:38;11.60;99.90
25092;DHT22;13082;52.374;4.946;2023-04-30T07:44:03;11.70;99.90
25092;DHT22;13082;52.374;4.946;2023-04-30T07:46:29;11.80;99.90
25092;DHT22;13082;52.374;4.946;2023-04-30T07:48:55;11.70;99.90
25092;DHT22;13082;52.374;4.946;2023-04-30T07:51:21;11.70;99.90
25092;DHT22;13082;52.374;4.946;2023-04-30T07:53:46;11.80;99.90
25092;DHT22;13082;52.374;4.946;2023-04-30T07:56:12;11.80;99.90
25092;DHT22;13082;52.374;4.946;2023-04-30T07:58:38;11.90;99.90
25092;DHT22;13082;52.374;4.946;2023-04-30T08:01:03;11.90;99.90
25092;DHT22;13082;52.374;4.946;2023-04-30T08:03:29;11.90;99.90
25092;DHT22;13082;52.374;4.946;2023-04-30T08:05:54;12.00;99.90
25092;DHT22;13082;52.374;4.946;2023-04-30T08:08:20;12.10;99.90
25092;DHT22;13082;52.374;4.946;2023-04-30T08:10:46;12.10;99.90
25092;DHT22;13082;52.374;4.946;2023-04-30T08:13:11;12.10;99.90
25092;DHT22;13082;52.374;4.946;2023-04-30T08:15:37;12.20;99.90
25092;DHT22;13082;52.374;4.946;2023-04-30T08:18:04;12.20;99.90
25092;DHT22;13082;52.374;4.946;2023-04-30T08:20:31;12.30;99.90
25092;DHT22;13082;52.374;4.946;2023-04-30T08:22:56;12.40;99.90
25092;DHT22;13082;52.374;4.946;2023-04-30T08:25:22;12.40;99.90
25092;DHT22;13082;52.374;4.946;2023-04-30T08:27:48;12.40;99.90
25092;DHT22;13082;52.374;4.946;2023-04-30T08:30:13;12.50;99.90
25092;DHT22;13082;52.374;4.946;2023-04-30T08:32:39;12.60;99.90
25092;DHT22;13082;52.374;4.946;2023-04-30T08:35:06;12.60;99.90
25092;DHT22;13082;52.374;4.946;2023-04-30T08:37:32;12.60;99.90
25092;DHT22;13082;52.374;4.946;2023-04-30T08:39:58;12.70;99.90
25092;DHT22;13082;52.374;4.946;2023-04-30T08:42:27;12.70;99.90
25092;DHT22;13082;52.374;4.946;2023-04-30T08:44:54;12.80;99.90
25092;DHT22;13082;52.374;4.946;2023-04-30T08:47:20;12.80;99.90
25092;DHT22;13082;52.374;4.946;2023-04-30T08:49:47;12.90;99.90
25092;DHT22;13082;52.374;4.946;2023-04-30T08:52:13;13.00;99.90
25092;DHT22;13082;52.374;4.946;2023-04-30T08:54:39;13.10;99.90
25092;DHT22;13082;52.374;4.946;2023-04-30T08:57:05;13.30;99.90
25092;DHT22;13082;52.374;4.946;2023-04-30T08:59:30;13.30;99.90
25092;DHT22;13082;52.374;4.946;2023-04-30T09:01:56;13.40;99.90
25092;DHT22;13082;52.374;4.946;2023-04-30T09:04:22;13.50;99.90
25092;DHT22;13082;52.374;4.946;2023-04-30T09:06:47;13.50;99.90
25092;DHT22;13082;52.374;4.946;2023-04-30T09:09:14;13.40;99.90
25092;DHT22;13082;52.374;4.946;2023-04-30T09:11:41;13.50;99.90
25092;DHT22;13082;52.374;4.946;2023-04-30T09:14:07;13.50;99.90
25092;DHT22;13082;52.374;4.946;2023-04-30T09:16:48;13.50;99.90
25092;DHT22;13082;52.374;4.946;2023-04-30T09:19:27;13.70;99.90
25092;DHT22;13082;52.374;4.946;2023-04-30T09:21:54;13.70;99.90
25092;DHT22;13082;52.374;4.946;2023-04-30T09:24:19;13.80;99.90
25092;DHT22;13082;52.374;4.946;2023-04-30T09:26:46;13.90;99.90
25092;DHT22;13082;52.374;4.946;2023-04-30T09:29:11;13.90;99.90
25092;DHT22;13082;52.374;4.946;2023-04-30T09:31:39;13.90;99.90
25092;DHT22;13082;52.374;4.946;2023-04-30T09:34:05;14.00;99.90
25092;DHT22;13082;52.374;4.946;2023-04-30T09:36:31;14.00;99.90
25092;DHT22;13082;52.374;4.946;2023-04-30T09:39:10;14.00;99.90
25092;DHT22;13082;52.374;4.946;2023-04-30T09:41:38;14.00;99.90
25092;DHT22;13082;52.374;4.946;2023-04-30T09:44:04;14.10;99.90
25092;DHT22;13082;52.374;4.946;2023-04-30T09:46:31;14.20;99.90
25092;DHT22;13082;52.374;4.946;2023-04-30T09:48:58;14.20;99.90
25092;DHT22;13082;52.374;4.946;2023-04-30T09:51:24;14.20;99.90
25092;DHT22;13082;52.374;4.946;2023-04-30T09:53:50;14.20;99.90
25092;DHT22;13082;52.374;4.946;2023-04-30T09:56:24;14.10;99.90
25092;DHT22;13082;52.374;4.946;2023-04-30T09:58:55;14.10;99.90
25092;DHT22;13082;52.374;4.946;2023-04-30T10:01:22;14.00;99.90
25092;DHT22;13082;52.374;4.946;2023-04-30T10:03:50;14.10;99.90
25092;DHT22;13082;52.374;4.946;2023-04-30T10:06:17;14.20;99.90
25092;DHT22;13082;52.374;4.946;2023-04-30T10:08:51;14.20;99.90
25092;DHT22;13082;52.374;4.946;2023-04-30T10:11:20;14.30;99.90
25092;DHT22;13082;52.374;4.946;2023-04-30T10:13:59;14.30;99.90
25092;DHT22;13082;52.374;4.946;2023-04-30T10:16:39;14.30;99.90
25092;DHT22;13082;52.374;4.946;2023-04-30T10:19:18;14.40;99.90
25092;DHT22;13082;52.374;4.946;2023-04-30T10:21:45;14.50;99.90
25092;DHT22;13082;52.374;4.946;2023-04-30T10:24:15;14.60;99.90
25092;DHT22;13082;52.374;4.946;2023-04-30T10:26:45;14.70;99.90
25092;DHT22;13082;52.374;4.946;2023-04-30T10:29:16;14.80;99.90
25092;DHT22;13082;52.374;4.946;2023-04-30T10:31:45;14.90;99.90
25092;DHT22;13082;52.374;4.946;2023-04-30T10:34:14;15.00;99.90
25092;DHT22;13082;52.374;4.946;2023-04-30T10:36:46;15.10;99.90
25092;DHT22;13082;52.374;4.946;2023-04-30T10:39:22;15.10;99.90
25092;DHT22;13082;52.374;4.946;2023-04-30T10:41:48;15.30;99.90
25092;DHT22;13082;52.374;4.946;2023-04-30T10:44:21;15.40;99.90
25092;DHT22;13082;52.374;4.946;2023-04-30T10:46:47;15.40;99.90
25092;DHT22;13082;52.374;4.946;2023-04-30T10:49:13;15.40;99.90
25092;DHT22;13082;52.374;4.946;2023-04-30T10:51:47;15.40;99.90
25092;DHT22;13082;52.374;4.946;2023-04-30T10:54:15;15.30;99.90
25092;DHT22;13082;52.374;4.946;2023-04-30T10:56:43;15.40;99.90
25092;DHT22;13082;52.374;4.946;2023-04-30T10:59:10;15.40;99.90
25092;DHT22;13082;52.374;4.946;2023-04-30T11:01:59;15.50;99.90
25092;DHT22;13082;52.374;4.946;2023-04-30T11:04:25;15.60;99.90
25092;DHT22;13082;52.374;4.946;2023-04-30T11:09:18;15.70;99.90
25092;DHT22;13082;52.374;4.946;2023-04-30T11:11:44;15.90;99.90
25092;DHT22;13082;52.374;4.946;2023-04-30T11:14:11;16.00;99.90
25092;DHT22;13082;52.374;4.946;2023-04-30T11:16:37;16.10;99.90
25092;DHT22;13082;52.374;4.946;2023-04-30T11:19:09;16.20;99.90
25092;DHT22;13082;52.374;4.946;2023-04-30T11:21:40;16.20;99.90
25092;DHT22;13082;52.374;4.946;2023-04-30T11:24:05;16.20;99.90
25092;DHT22;13082;52.374;4.946;2023-04-30T11:27:03;16.20;99.90
25092;DHT22;13082;52.374;4.946;2023-04-30T11:29:30;16.30;99.90
25092;DHT22;13082;52.374;4.946;2023-04-30T11:31:59;16.50;99.90
25092;DHT22;13082;52.374;4.946;2023-04-30T11:34:25;16.60;99.90
25092;DHT22;13082;52.374;4.946;2023-04-30T11:36:54;16.60;99.90
25092;DHT22;13082;52.374;4.946;2023-04-30T11:39:24;16.70;99.90
25092;DHT22;13082;52.374;4.946;2023-04-30T11:41:51;16.80;99.90
25092;DHT22;13082;52.374;4.946;2023-04-30T11:44:25;16.70;99.90
25092;DHT22;13082;52.374;4.946;2023-04-30T11:46:51;16.70;99.90
25092;DHT22;13082;52.374;4.946;2023-04-30T11:49:16;16.80;99.90
25092;DHT22;13082;52.374;4.946;2023-04-30T11:51:42;16.80;99.90
25092;DHT22;13082;52.374;4.946;2023-04-30T11:54:13;16.70;99.90
25092;DHT22;13082;52.374;4.946;2023-04-30T11:56:38;16.70;99.90
25092;DHT22;13082;52.374;4.946;2023-04-30T11:59:11;16.80;99.90
25092;DHT22;13082;52.374;4.946;2023-04-30T12:01:36;16.90;99.90
25092;DHT22;13082;52.374;4.946;2023-04-30T12:04:03;17.00;99.90
25092;DHT22;13082;52.374;4.946;2023-04-30T12:06:29;17.00;99.90
25092;DHT22;13082;52.374;4.946;2023-04-30T12:08:56;17.00;99.90
25092;DHT22;13082;52.374;4.946;2023-04-30T12:11:24;17.00;99.90
25092;DHT22;13082;52.374;4.946;2023-04-30T12:13:55;17.10;99.90
25092;DHT22;13082;52.374;4.946;2023-04-30T12:16:26;17.10;99.90
25092;DHT22;13082;52.374;4.946;2023-04-30T12:18:52;17.20;99.90
25092;DHT22;13082;52.374;4.946;2023-04-30T12:21:19;17.30;99.90
25092;DHT22;13082;52.374;4.946;2023-04-30T12:23:45;17.20;99.90
25092;DHT22;13082;52.374;4.946;2023-04-30T12:26:10;17.10;99.90
25092;DHT22;13082;52.374;4.946;2023-04-30T12:28:36;17.20;99.90
25092;DHT22;13082;52.374;4.946;2023-04-30T12:31:02;17.20;99.90
25092;DHT22;13082;52.374;4.946;2023-04-30T12:33:31;17.20;99.90
25092;DHT22;13082;52.374;4.946;2023-04-30T12:35:57;17.30;99.90
25092;DHT22;13082;52.374;4.946;2023-04-30T12:38:24;17.30;99.90
25092;DHT22;13082;52.374;4.946;2023-04-30T12:40:49;17.30;99.90
25092;DHT22;13082;52.374;4.946;2023-04-30T12:43:16;17.20;99.90
25092;DHT22;13082;52.374;4.946;2023-04-30T12:48:12;17.30;99.90
25092;DHT22;13082;52.374;4.946;2023-04-30T12:50:38;17.30;99.90
25092;DHT22;13082;52.374;4.946;2023-04-30T12:53:04;17.30;99.90
25092;DHT22;13082;52.374;4.946;2023-04-30T12:55:30;17.40;99.90
25092;DHT22;13082;52.374;4.946;2023-04-30T12:58:06;17.40;99.90
25092;DHT22;13082;52.374;4.946;2023-04-30T13:00:48;17.40;99.90
25092;DHT22;13082;52.374;4.946;2023-04-30T13:03:16;17.40;99.90
25092;DHT22;13082;52.374;4.946;2023-04-30T13:05:45;17.50;99.90
25092;DHT22;13082;52.374;4.946;2023-04-30T13:08:12;17.50;99.90
25092;DHT22;13082;52.374;4.946;2023-04-30T13:10:38;17.60;99.90
25092;DHT22;13082;52.374;4.946;2023-04-30T13:13:04;17.70;99.90
25092;DHT22;13082;52.374;4.946;2023-04-30T13:15:29;17.70;99.90
25092;DHT22;13082;52.374;4.946;2023-04-30T13:17:55;17.80;99.90
25092;DHT22;13082;52.374;4.946;2023-04-30T13:20:21;17.80;99.90
25092;DHT22;13082;52.374;4.946;2023-04-30T13:22:49;17.90;99.90
25092;DHT22;13082;52.374;4.946;2023-04-30T13:25:15;17.80;99.90
25092;DHT22;13082;52.374;4.946;2023-04-30T13:27:41;17.90;99.90
25092;DHT22;13082;52.374;4.946;2023-04-30T13:30:08;17.90;99.90
25092;DHT22;13082;52.374;4.946;2023-04-30T13:32:34;17.90;99.90
25092;DHT22;13082;52.374;4.946;2023-04-30T13:34:59;18.00;99.90
25092;DHT22;13082;52.374;4.946;2023-04-30T13:37:25;18.00;99.90
25092;DHT22;13082;52.374;4.946;2023-04-30T13:39:51;18.00;99.90
25092;DHT22;13082;52.374;4.946;2023-04-30T13:42:16;18.00;99.90
25092;DHT22;13082;52.374;4.946;2023-04-30T13:44:42;18.00;99.90
25092;DHT22;13082;52.374;4.946;2023-04-30T13:47:10;18.00;99.90
25092;DHT22;13082;52.374;4.946;2023-04-30T13:49:36;18.00;99.90
25092;DHT22;13082;52.374;4.946;2023-04-30T13:52:02;18.00;99.90
25092;DHT22;13082;52.374;4.946;2023-04-30T13:54:28;18.00;99.90
25092;DHT22;13082;52.374;4.946;2023-04-30T13:56:54;17.90;99.90
25092;DHT22;13082;52.374;4.946;2023-04-30T13:59:20;17.90;99.90
25092;DHT22;13082;52.374;4.946;2023-04-30T14:01:46;17.90;99.90
25092;DHT22;13082;52.374;4.946;2023-04-30T14:04:11;17.80;99.90
25092;DHT22;13082;52.374;4.946;2023-04-30T14:06:38;17.90;99.90
25092;DHT22;13082;52.374;4.946;2023-04-30T14:09:03;17.90;99.90
25092;DHT22;13082;52.374;4.946;2023-04-30T14:11:29;17.90;99.90
25092;DHT22;13082;52.374;4.946;2023-04-30T14:13:54;17.90;99.90
25092;DHT22;13082;52.374;4.946;2023-04-30T14:16:20;17.90;99.90
25092;DHT22;13082;52.374;4.946;2023-04-30T14:18:46;17.90;99.90
25092;DHT22;13082;52.374;4.946;2023-04-30T14:21:12;17.90;99.90
25092;DHT22;13082;52.374;4.946;2023-04-30T14:23:38;18.00;99.90
25092;DHT22;13082;52.374;4.946;2023-04-30T14:26:04;18.00;99.90
25092;DHT22;13082;52.374;4.946;2023-04-30T14:28:30;18.00;99.90
25092;DHT22;13082;52.374;4.946;2023-04-30T14:30:55;17.90;99.90
25092;DHT22;13082;52.374;4.946;2023-04-30T14:33:21;18.00;99.90
25092;DHT22;13082;52.374;4.946;2023-04-30T14:35:47;17.90;99.90
25092;DHT22;13082;52.374;4.946;2023-04-30T14:38:13;17.90;99.90
25092;DHT22;13082;52.374;4.946;2023-04-30T14:40:39;17.90;99.90
25092;DHT22;13082;52.374;4.946;2023-04-30T14:43:05;17.80;99.90
25092;DHT22;13082;52.374;4.946;2023-04-30T14:45:33;17.80;99.90
25092;DHT22;13082;52.374;4.946;2023-04-30T14:47:58;17.80;99.90
25092;DHT22;13082;52.374;4.946;2023-04-30T14:50:24;17.90;99.90
25092;DHT22;13082;52.374;4.946;2023-04-30T14:52:50;17.90;99.90
25092;DHT22;13082;52.374;4.946;2023-04-30T14:55:16;17.90;99.90
25092;DHT22;13082;52.374;4.946;2023-04-30T14:57:42;17.80;99.90
25092;DHT22;13082;52.374;4.946;2023-04-30T15:00:08;17.90;99.90
25092;DHT22;13082;52.374;4.946;2023-04-30T15:02:34;17.90;99.90
25092;DHT22;13082;52.374;4.946;2023-04-30T15:05:02;17.80;99.90
25092;DHT22;13082;52.374;4.946;2023-04-30T15:07:28;17.80;99.90
25092;DHT22;13082;52.374;4.946;2023-04-30T15:09:54;17.80;99.90
25092;DHT22;13082;52.374;4.946;2023-04-30T15:12:19;17.70;99.90
25092;DHT22;13082;52.374;4.946;2023-04-30T15:14:46;17.70;99.90
25092;DHT22;13082;52.374;4.946;2023-04-30T15:17:12;17.70;99.90
25092;DHT22;13082;52.374;4.946;2023-04-30T15:19:38;17.70;99.90
25092;DHT22;13082;52.374;4.946;2023-04-30T15:22:05;17.60;99.90
25092;DHT22;13082;52.374;4.946;2023-04-30T15:24:31;17.60;99.90
25092;DHT22;13082;52.374;4.946;2023-04-30T15:26:56;17.60;99.90
25092;DHT22;13082;52.374;4.946;2023-04-30T15:29:23;17.60;99.90
25092;DHT22;13082;52.374;4.946;2023-04-30T15:31:48;17.60;99.90
25092;DHT22;13082;52.374;4.946;2023-04-30T15:34:20;17.50;99.90
25092;DHT22;13082;52.374;4.946;2023-04-30T15:36:46;17.50;99.90
25092;DHT22;13082;52.374;4.946;2023-04-30T15:39:12;17.50;99.90
25092;DHT22;13082;52.374;4.946;2023-04-30T15:41:37;17.50;99.90
25092;DHT22;13082;52.374;4.946;2023-04-30T15:44:03;17.40;99.90
25092;DHT22;13082;52.374;4.946;2023-04-30T15:46:29;17.50;99.90
25092;DHT22;13082;52.374;4.946;2023-04-30T15:48:55;17.50;99.90
25092;DHT22;13082;52.374;4.946;2023-04-30T15:51:21;17.50;99.90
25092;DHT22;13082;52.374;4.946;2023-04-30T15:53:47;17.40;99.90